sensor_id;sensor_type;location;lat;lon;timestamp;temperature;humidity
14934;DHT22;7560;51.364;12.384;2023-01-13T00:02:47;11.00;99.90
14934;DHT22;7560;51.364;12.384;2023-01-13T00:07:49;10.80;99.90
14934;DHT22;7560;51.364;12.384;2023-01-13T00:12:51;10.80;99.90
14934;DHT22;7560;51.364;12.384;2023-01-13T00:17:54;10.70;99.90
14934;DHT22;7560;51.364;12.384;2023-01-13T00:22:55;10.70;99.90
14934;DHT22;7560;51.364;12.384;2023-01-13T00:27:59;10.70;99.90
14934;DHT22;7560;51.364;12.384;2023-01-13T00:33:01;10.80;99.90
14934;DHT22;7560;51.364;12.384;2023-01-13T00:38:02;10.80;99.90
14934;DHT22;7560;51.364;12.384;2023-01-13T00:43:04;10.80;99.90
14934;DHT22;7560;51.364;12.384;2023-01-13T00:48:25;10.90;99.90
14934;DHT22;7560;51.364;12.384;2023-01-13T00:53:31;10.90;99.90
14934;DHT22;7560;51.364;12.384;2023-01-13T00:58:34;10.90;99.90
14934;DHT22;7560;51.364;12.384;2023-01-13T01:03:36;10.90;99.90
14934;DHT22;7560;51.364;12.384;2023-01-13T01:08:38;10.90;99.90
14934;DHT22;7560;51.364;12.384;2023-01-13T01:13:41;10.90;99.90
14934;DHT22;7560;51.364;12.384;2023-01-13T01:18:46;10.90;99.90
14934;DHT22;7560;51.364;12.384;2023-01-13T01:23:48;10.90;99.90
14934;DHT22;7560;51.364;12.384;2023-01-13T01:28:52;10.90;99.90
14934;DHT22;7560;51.364;12.384;2023-01-13T01:33:54;11.00;99.90
14934;DHT22;7560;51.364;12.384;2023-01-13T01:38:57;11.00;99.90
14934;DHT22;7560;51.364;12.384;2023-01-13T01:49:39;11.00;99.90
14934;DHT22;7560;51.364;12.384;2023-01-13T01:54:50;11.00;99.90
14934;DHT22;7560;51.364;12.384;2023-01-13T01:59:54;11.00;99.90
14934;DHT22;7560;51.364;12.384;2023-01-13T02:04:58;11.00;99.90
14934;DHT22;7560;51.364;12.384;2023-01-13T02:10:03;11.00;99.90
14934;DHT22;7560;51.364;12.384;2023-01-13T02:20:16;11.00;99.90
14934;DHT22;7560;51.364;12.384;2023-01-13T02:31:06;11.10;99.90
14934;DHT22;7560;51.364;12.384;2023-01-13T02:36:50;11.10;99.90
14934;DHT22;7560;51.364;12.384;2023-01-13T02:42:10;11.10;99.90
14934;DHT22;7560;51.364;12.384;2023-01-13T02:47:35;11.10;99.90
14934;DHT22;7560;51.364;12.384;2023-01-13T02:53:00;11.10;99.90
14934;DHT22;7560;51.364;12.384;2023-01-13T02:58:05;11.10;99.90
14934;DHT22;7560;51.364;12.384;2023-01-13T03:03:08;11.10;99.90
14934;DHT22;7560;51.364;12.384;2023-01-13T03:08:21;11.20;99.90
14934;DHT22;7560;51.364;12.384;2023-01-13T03:14:00;11.10;99.90
14934;DHT22;7560;51.364;12.384;2023-01-13T03:19:28;11.00;99.90
14934;DHT22;7560;51.364;12.384;2023-01-13T03:24:41;11.00;99.90
14934;DHT22;7560;51.364;12.384;2023-01-13T03:35:08;11.10;99.90
14934;DHT22;7560;51.364;12.384;2023-01-13T03:40:16;11.00;99.90
14934;DHT22;7560;51.364;12.384;2023-01-13T03:45:19;11.00;99.90
14934;DHT22;7560;51.364;12.384;2023-01-13T03:50:29;11.00;99.90
14934;DHT22;7560;51.364;12.384;2023-01-13T03:55:35;11.00;99.90
14934;DHT22;7560;51.364;12.384;2023-01-13T04:00:45;11.10;99.90
14934;DHT22;7560;51.364;12.384;2023-01-13T04:05:56;11.10;99.90
14934;DHT22;7560;51.364;12.384;2023-01-13T04:11:26;11.10;99.90
14934;DHT22;7560;51.364;12.384;2023-01-13T04:16:31;11.00;99.90
14934;DHT22;7560;51.364;12.384;2023-01-13T04:21:34;11.00;99.90
14934;DHT22;7560;51.364;12.384;2023-01-13T04:26:36;11.00;99.90
14934;DHT22;7560;51.364;12.384;2023-01-13T04:31:37;11.00;99.90
14934;DHT22;7560;51.364;12.384;2023-01-13T04:36:39;11.00;99.90
14934;DHT22;7560;51.364;12.384;2023-01-13T04:41:41;11.00;99.90
14934;DHT22;7560;51.364;12.384;2023-01-13T04:46:58;11.00;99.90
14934;DHT22;7560;51.364;12.384;2023-01-13T04:51:59;11.00;99.90
14934;DHT22;7560;51.364;12.384;2023-01-13T04:57:04;11.00;99.90
14934;DHT22;7560;51.364;12.384;2023-01-13T05:02:05;11.00;99.90
14934;DHT22;7560;51.364;12.384;2023-01-13T05:07:09;11.10;99.90
14934;DHT22;7560;51.364;12.384;2023-01-13T05:12:11;11.00;99.90
14934;DHT22;7560;51.364;12.384;2023-01-13T05:17:32;11.00;99.90
14934;DHT22;7560;51.364;12.384;2023-01-13T05:22:33;11.00;99.90
14934;DHT22;7560;51.364;12.384;2023-01-13T05:27:58;11.00;99.90
14934;DHT22;7560;51.364;12.384;2023-01-13T05:33:00;11.00;99.90
14934;DHT22;7560;51.364;12.384;2023-01-13T05:38:02;11.00;99.90
14934;DHT22;7560;51.364;12.384;2023-01-13T05:43:14;11.00;99.90
14934;DHT22;7560;51.364;12.384;2023-01-13T05:48:27;11.00;99.90
14934;DHT22;7560;51.364;12.384;2023-01-13T05:53:30;11.00;99.90
14934;DHT22;7560;51.364;12.384;2023-01-13T05:58:32;11.00;99.90
14934;DHT22;7560;51.364;12.384;2023-01-13T06:03:35;11.00;99.90
14934;DHT22;7560;51.364;12.384;2023-01-13T06:08:37;11.00;99.90
14934;DHT22;7560;51.364;12.384;2023-01-13T06:13:40;11.10;99.90
14934;DHT22;7560;51.364;12.384;2023-01-13T06:18:42;11.10;99.90
14934;DHT22;7560;51.364;12.384;2023-01-13T06:23:43;11.10;99.90
14934;DHT22;7560;51.364;12.384;2023-01-13T06:28:45;11.10;99.90
14934;DHT22;7560;51.364;12.384;2023-01-13T06:33:58;11.10;99.90
14934;DHT22;7560;51.364;12.384;2023-01-13T06:39:02;11.00;99.90
14934;DHT22;7560;51.364;12.384;2023-01-13T06:44:04;11.00;99.90
14934;DHT22;7560;51.364;12.384;2023-01-13T06:49:06;11.00;99.90
14934;DHT22;7560;51.364;12.384;2023-01-13T06:54:08;11.00;99.90
14934;DHT22;7560;51.364;12.384;2023-01-13T06:59:11;10.30;99.90
14934;DHT22;7560;51.364;12.384;2023-01-13T07:04:13;9.60;99.90
14934;DHT22;7560;51.364;12.384;2023-01-13T07:09:15;9.50;99.90
14934;DHT22;7560;51.364;12.384;2023-01-13T07:14:18;9.30;99.90
14934;DHT22;7560;51.364;12.384;2023-01-13T07:19:38;9.20;99.90
14934;DHT22;7560;51.364;12.384;2023-01-13T07:24:39;9.10;99.90
14934;DHT22;7560;51.364;12.384;2023-01-13T07:29:41;9.20;99.90
14934;DHT22;7560;51.364;12.384;2023-01-13T07:34:44;9.20;99.90
14934;DHT22;7560;51.364;12.384;2023-01-13T07:39:45;9.20;99.90
14934;DHT22;7560;51.364;12.384;2023-01-13T07:44:48;9.20;99.90
14934;DHT22;7560;51.364;12.384;2023-01-13T07:49:49;9.20;99.90
14934;DHT22;7560;51.364;12.384;2023-01-13T07:54:51;9.20;99.90
14934;DHT22;7560;51.364;12.384;2023-01-13T07:59:53;9.20;99.90
14934;DHT22;7560;51.364;12.384;2023-01-13T08:04:55;9.30;99.90
14934;DHT22;7560;51.364;12.384;2023-01-13T08:09:58;9.20;99.90
14934;DHT22;7560;51.364;12.384;2023-01-13T08:15:00;9.30;99.90
14934;DHT22;7560;51.364;12.384;2023-01-13T08:20:03;9.30;99.90
14934;DHT22;7560;51.364;12.384;2023-01-13T08:25:06;9.30;99.90
14934;DHT22;7560;51.364;12.384;2023-01-13T08:30:11;9.40;99.90
14934;DHT22;7560;51.364;12.384;2023-01-13T08:35:14;9.40;99.90
14934;DHT22;7560;51.364;12.384;2023-01-13T08:40:17;9.40;99.90
14934;DHT22;7560;51.364;12.384;2023-01-13T08:45:19;9.40;99.90
14934;DHT22;7560;51.364;12.384;2023-01-13T08:50:22;9.30;99.90
14934;DHT22;7560;51.364;12.384;2023-01-13T08:55:24;9.30;99.90
14934;DHT22;7560;51.364;12.384;2023-01-13T09:00:26;9.40;99.90
14934;DHT22;7560;51.364;12.384;2023-01-13T09:05:28;9.30;99.90
14934;DHT22;7560;51.364;12.384;2023-01-13T09:10:30;9.30;99.90
14934;DHT22;7560;51.364;12.384;2023-01-13T09:15:32;9.50;99.90
14934;DHT22;7560;51.364;12.384;2023-01-13T09:20:34;9.50;99.90
14934;DHT22;7560;51.364;12.384;2023-01-13T09:25:35;9.70;99.90
14934;DHT22;7560;51.364;12.384;2023-01-13T09:30:37;9.90;99.90
14934;DHT22;7560;51.364;12.384;2023-01-13T09:35:39;9.80;99.90
14934;DHT22;7560;51.364;12.384;2023-01-13T09:40:41;9.60;99.90
14934;DHT22;7560;51.364;12.384;2023-01-13T09:45:52;9.60;99.90
14934;DHT22;7560;51.364;12.384;2023-01-13T09:51:18;9.60;99.90
14934;DHT22;7560;51.364;12.384;2023-01-13T09:56:25;9.60;99.90
14934;DHT22;7560;51.364;12.384;2023-01-13T10:01:28;9.60;99.90
14934;DHT22;7560;51.364;12.384;2023-01-13T10:06:38;9.60;99.90
14934;DHT22;7560;51.364;12.384;2023-01-13T10:11:43;9.60;99.90
14934;DHT22;7560;51.364;12.384;2023-01-13T10:17:14;9.80;99.90
14934;DHT22;7560;51.364;12.384;2023-01-13T10:22:46;9.60;99.90
14934;DHT22;7560;51.364;12.384;2023-01-13T10:27:51;9.30;99.90
14934;DHT22;7560;51.364;12.384;2023-01-13T10:32:57;9.20;99.90
14934;DHT22;7560;51.364;12.384;2023-01-13T10:37:59;9.30;99.90
14934;DHT22;7560;51.364;12.384;2023-01-13T10:43:04;9.30;99.90
14934;DHT22;7560;51.364;12.384;2023-01-13T10:48:12;9.30;99.90
14934;DHT22;7560;51.364;12.384;2023-01-13T10:53:23;9.40;99.90
14934;DHT22;7560;51.364;12.384;2023-01-13T10:58:26;9.30;99.90
14934;DHT22;7560;51.364;12.384;2023-01-13T11:03:40;9.30;99.90
14934;DHT22;7560;51.364;12.384;2023-01-13T11:08:45;9.40;99.90
14934;DHT22;7560;51.364;12.384;2023-01-13T11:13:49;9.40;99.90
14934;DHT22;7560;51.364;12.384;2023-01-13T11:19:15;9.30;99.90
14934;DHT22;7560;51.364;12.384;2023-01-13T11:24:26;9.40;99.90
14934;DHT22;7560;51.364;12.384;2023-01-13T11:35:01;9.40;99.90
14934;DHT22;7560;51.364;12.384;2023-01-13T11:40:32;9.50;99.90
14934;DHT22;7560;51.364;12.384;2023-01-13T11:45:55;9.70;99.90
14934;DHT22;7560;51.364;12.384;2023-01-13T12:06:58;10.10;99.90
14934;DHT22;7560;51.364;12.384;2023-01-13T12:12:35;10.30;99.90
14934;DHT22;7560;51.364;12.384;2023-01-13T12:33:46;10.80;99.90
14934;DHT22;7560;51.364;12.384;2023-01-13T12:44:28;10.70;99.90
14934;DHT22;7560;51.364;12.384;2023-01-13T12:49:32;10.70;99.90
14934;DHT22;7560;51.364;12.384;2023-01-13T13:00:11;10.90;99.90
14934;DHT22;7560;51.364;12.384;2023-01-13T13:10:39;10.50;99.90
14934;DHT22;7560;51.364;12.384;2023-01-13T13:15:48;10.60;99.90
14934;DHT22;7560;51.364;12.384;2023-01-13T13:20:56;10.90;99.90
14934;DHT22;7560;51.364;12.384;2023-01-13T13:26:14;11.10;99.90
14934;DHT22;7560;51.364;12.384;2023-01-13T13:41:52;10.60;99.90
14934;DHT22;7560;51.364;12.384;2023-01-13T13:47:16;10.60;99.90
14934;DHT22;7560;51.364;12.384;2023-01-13T13:52:31;10.60;99.90
14934;DHT22;7560;51.364;12.384;2023-01-13T13:57:38;10.40;99.90
14934;DHT22;7560;51.364;12.384;2023-01-13T14:02:55;10.30;99.90
14934;DHT22;7560;51.364;12.384;2023-01-13T14:08:17;10.40;99.90
14934;DHT22;7560;51.364;12.384;2023-01-13T14:18:27;10.40;99.90
14934;DHT22;7560;51.364;12.384;2023-01-13T14:23:31;10.40;99.90
14934;DHT22;7560;51.364;12.384;2023-01-13T14:28:36;10.20;99.90
14934;DHT22;7560;51.364;12.384;2023-01-13T14:33:42;10.20;99.90
14934;DHT22;7560;51.364;12.384;2023-01-13T14:38:49;10.20;99.90
14934;DHT22;7560;51.364;12.384;2023-01-13T14:44:21;10.10;99.90
14934;DHT22;7560;51.364;12.384;2023-01-13T14:49:29;9.90;99.90
14934;DHT22;7560;51.364;12.384;2023-01-13T14:54:49;9.70;99.90
14934;DHT22;7560;51.364;12.384;2023-01-13T14:59:55;9.50;99.90
14934;DHT22;7560;51.364;12.384;2023-01-13T15:10:33;9.30;99.90
14934;DHT22;7560;51.364;12.384;2023-01-13T15:15:37;9.10;99.90
14934;DHT22;7560;51.364;12.384;2023-01-13T15:20:40;9.00;99.90
14934;DHT22;7560;51.364;12.384;2023-01-13T15:25:43;8.90;99.90
14934;DHT22;7560;51.364;12.384;2023-01-13T15:30:46;8.90;99.90
14934;DHT22;7560;51.364;12.384;2023-01-13T15:35:50;8.70;99.90
14934;DHT22;7560;51.364;12.384;2023-01-13T15:40:52;8.70;99.90
14934;DHT22;7560;51.364;12.384;2023-01-13T15:45:54;8.60;99.90
14934;DHT22;7560;51.364;12.384;2023-01-13T15:51:15;8.60;99.90
14934;DHT22;7560;51.364;12.384;2023-01-13T15:56:24;8.70;99.90
14934;DHT22;7560;51.364;12.384;2023-01-13T16:01:29;8.70;99.90
14934;DHT22;7560;51.364;12.384;2023-01-13T16:06:32;8.80;99.90
14934;DHT22;7560;51.364;12.384;2023-01-13T16:11:35;8.80;99.90
14934;DHT22;7560;51.364;12.384;2023-01-13T16:16:36;8.90;99.90
14934;DHT22;7560;51.364;12.384;2023-01-13T16:21:39;9.00;99.90
14934;DHT22;7560;51.364;12.384;2023-01-13T16:26:41;9.10;99.90
14934;DHT22;7560;51.364;12.384;2023-01-13T16:31:42;9.20;99.90
14934;DHT22;7560;51.364;12.384;2023-01-13T16:36:45;9.20;99.90
14934;DHT22;7560;51.364;12.384;2023-01-13T16:41:47;9.10;99.90
14934;DHT22;7560;51.364;12.384;2023-01-13T16:46:49;9.20;99.90
14934;DHT22;7560;51.364;12.384;2023-01-13T16:51:52;9.10;99.90
14934;DHT22;7560;51.364;12.384;2023-01-13T16:56:54;9.20;99.90
14934;DHT22;7560;51.364;12.384;2023-01-13T17:01:55;9.20;99.90
14934;DHT22;7560;51.364;12.384;2023-01-13T17:06:59;9.20;99.90
14934;DHT22;7560;51.364;12.384;2023-01-13T17:12:03;9.20;99.90
14934;DHT22;7560;51.364;12.384;2023-01-13T17:17:07;9.30;99.90
14934;DHT22;7560;51.364;12.384;2023-01-13T17:22:14;9.30;99.90
14934;DHT22;7560;51.364;12.384;2023-01-13T17:27:19;9.30;99.90
14934;DHT22;7560;51.364;12.384;2023-01-13T17:32:22;9.40;99.90
14934;DHT22;7560;51.364;12.384;2023-01-13T17:37:24;9.30;99.90
14934;DHT22;7560;51.364;12.384;2023-01-13T17:42:26;9.40;99.90
14934;DHT22;7560;51.364;12.384;2023-01-13T17:47:32;9.40;99.90
14934;DHT22;7560;51.364;12.384;2023-01-13T17:52:34;9.30;99.90
14934;DHT22;7560;51.364;12.384;2023-01-13T17:57:37;9.20;99.90
14934;DHT22;7560;51.364;12.384;2023-01-13T18:02:38;9.30;99.90
14934;DHT22;7560;51.364;12.384;2023-01-13T18:07:40;9.20;99.90
14934;DHT22;7560;51.364;12.384;2023-01-13T18:12:42;9.10;99.90
14934;DHT22;7560;51.364;12.384;2023-01-13T18:17:44;9.00;99.90
14934;DHT22;7560;51.364;12.384;2023-01-13T18:22:47;9.10;99.90
14934;DHT22;7560;51.364;12.384;2023-01-13T18:28:08;9.10;99.90
14934;DHT22;7560;51.364;12.384;2023-01-13T18:33:11;9.10;99.90
14934;DHT22;7560;51.364;12.384;2023-01-13T18:38:15;9.00;99.90
14934;DHT22;7560;51.364;12.384;2023-01-13T18:43:21;8.90;99.90
14934;DHT22;7560;51.364;12.384;2023-01-13T18:48:23;8.90;99.90
14934;DHT22;7560;51.364;12.384;2023-01-13T18:53:25;8.70;99.90
14934;DHT22;7560;51.364;12.384;2023-01-13T18:58:27;8.80;99.90
14934;DHT22;7560;51.364;12.384;2023-01-13T19:03:30;8.70;99.90
14934;DHT22;7560;51.364;12.384;2023-01-13T19:08:32;8.60;99.90
14934;DHT22;7560;51.364;12.384;2023-01-13T19:13:35;8.50;99.90
14934;DHT22;7560;51.364;12.384;2023-01-13T19:18:37;8.50;99.90
14934;DHT22;7560;51.364;12.384;2023-01-13T19:23:39;8.60;99.90
14934;DHT22;7560;51.364;12.384;2023-01-13T19:28:41;8.60;99.90
14934;DHT22;7560;51.364;12.384;2023-01-13T19:33:45;8.60;99.90
14934;DHT22;7560;51.364;12.384;2023-01-13T19:38:47;8.60;99.90
14934;DHT22;7560;51.364;12.384;2023-01-13T19:43:49;8.60;99.90
14934;DHT22;7560;51.364;12.384;2023-01-13T19:49:09;8.70;99.90
14934;DHT22;7560;51.364;12.384;2023-01-13T19:54:11;8.80;99.90
14934;DHT22;7560;51.364;12.384;2023-01-13T19:59:13;8.80;99.90
14934;DHT22;7560;51.364;12.384;2023-01-13T20:04:19;8.80;99.90
14934;DHT22;7560;51.364;12.384;2023-01-13T20:09:29;9.00;99.90
14934;DHT22;7560;51.364;12.384;2023-01-13T20:14:31;8.90;99.90
14934;DHT22;7560;51.364;12.384;2023-01-13T20:19:33;8.90;99.90
14934;DHT22;7560;51.364;12.384;2023-01-13T20:24:35;8.80;99.90
14934;DHT22;7560;51.364;12.384;2023-01-13T20:29:36;8.80;99.90
14934;DHT22;7560;51.364;12.384;2023-01-13T20:34:38;8.80;99.90
14934;DHT22;7560;51.364;12.384;2023-01-13T20:39:40;8.80;99.90
14934;DHT22;7560;51.364;12.384;2023-01-13T20:44:46;8.80;99.90
14934;DHT22;7560;51.364;12.384;2023-01-13T20:49:47;8.90;99.90
14934;DHT22;7560;51.364;12.384;2023-01-13T20:54:49;8.80;99.90
14934;DHT22;7560;51.364;12.384;2023-01-13T20:59:52;8.80;99.90
14934;DHT22;7560;51.364;12.384;2023-01-13T21:04:53;8.60;99.90
14934;DHT22;7560;51.364;12.384;2023-01-13T21:09:55;8.50;99.90
14934;DHT22;7560;51.364;12.384;2023-01-13T21:14:58;8.50;99.90
14934;DHT22;7560;51.364;12.384;2023-01-13T21:20:18;8.40;99.90
14934;DHT22;7560;51.364;12.384;2023-01-13T21:25:20;8.30;99.90
14934;DHT22;7560;51.364;12.384;2023-01-13T21:30:22;8.20;99.90
14934;DHT22;7560;51.364;12.384;2023-01-13T21:35:26;8.10;99.90
14934;DHT22;7560;51.364;12.384;2023-01-13T21:40:28;8.00;99.90
14934;DHT22;7560;51.364;12.384;2023-01-13T21:45:30;7.90;99.90
14934;DHT22;7560;51.364;12.384;2023-01-13T21:50:50;7.70;99.90
14934;DHT22;7560;51.364;12.384;2023-01-13T21:55:52;7.70;99.90
14934;DHT22;7560;51.364;12.384;2023-01-13T22:01:00;7.70;99.90
14934;DHT22;7560;51.364;12.384;2023-01-13T22:06:04;7.70;99.90
14934;DHT22;7560;51.364;12.384;2023-01-13T22:11:06;7.70;99.90
14934;DHT22;7560;51.364;12.384;2023-01-13T22:16:09;7.70;99.90
14934;DHT22;7560;51.364;12.384;2023-01-13T22:21:12;7.60;99.90
14934;DHT22;7560;51.364;12.384;2023-01-13T22:26:13;7.70;99.90
14934;DHT22;7560;51.364;12.384;2023-01-13T22:31:18;7.60;99.90
14934;DHT22;7560;51.364;12.384;2023-01-13T22:36:23;7.70;99.90
14934;DHT22;7560;51.364;12.384;2023-01-13T22:41:27;7.50;99.90
14934;DHT22;7560;51.364;12.384;2023-01-13T22:46:29;7.50;99.90
14934;DHT22;7560;51.364;12.384;2023-01-13T22:51:31;7.40;99.90
14934;DHT22;7560;51.364;12.384;2023-01-13T22:56:33;7.40;99.90
14934;DHT22;7560;51.364;12.384;2023-01-13T23:01:35;7.40;99.90
14934;DHT22;7560;51.364;12.384;2023-01-13T23:06:39;7.30;99.90
14934;DHT22;7560;51.364;12.384;2023-01-13T23:11:41;7.30;99.90
14934;DHT22;7560;51.364;12.384;2023-01-13T23:16:43;7.30;99.90
14934;DHT22;7560;51.364;12.384;2023-01-13T23:21:47;7.30;99.90
14934;DHT22;7560;51.364;12.384;2023-01-13T23:26:49;7.20;99.90
14934;DHT22;7560;51.364;12.384;2023-01-13T23:31:51;7.10;99.90
14934;DHT22;7560;51.364;12.384;2023-01-13T23:36:52;7.20;99.90
14934;DHT22;7560;51.364;12.384;2023-01-13T23:41:54;7.10;99.90
14934;DHT22;7560;51.364;12.384;2023-01-13T23:46:56;7.10;99.90
14934;DHT22;7560;51.364;12.384;2023-01-13T23:51:58;7.10;99.90
14934;DHT22;7560;51.364;12.384;2023-01-13T23:56:59;7.00;99.90
